sensor_id;sensor_type;location;lat;lon;timestamp;P1;durP1;ratioP1;P2;durP2;ratioP2
41943;SDS011;27636;52.610;13.244;2023-02-21T00:01:52;10.25;;;3.58;;
41943;SDS011;27636;52.610;13.244;2023-02-21T00:07:14;11.50;;;5.03;;
41943;SDS011;27636;52.610;13.244;2023-02-21T00:12:36;12.80;;;3.45;;
41943;SDS011;27636;52.610;13.244;2023-02-21T00:17:59;13.90;;;3.42;;
41943;SDS011;27636;52.610;13.244;2023-02-21T00:23:21;10.13;;;4.10;;
41943;SDS011;27636;52.610;13.244;2023-02-21T00:28:43;12.20;;;4.35;;
41943;SDS011;27636;52.610;13.244;2023-02-21T00:34:06;11.20;;;3.88;;
41943;SDS011;27636;52.610;13.244;2023-02-21T00:39:29;12.07;;;4.47;;
41943;SDS011;27636;52.610;13.244;2023-02-21T00:44:51;12.63;;;5.05;;
41943;SDS011;27636;52.610;13.244;2023-02-21T00:50:15;11.63;;;4.25;;
41943;SDS011;27636;52.610;13.244;2023-02-21T00:55:37;12.63;;;4.75;;
41943;SDS011;27636;52.610;13.244;2023-02-21T01:00:58;12.68;;;4.85;;
41943;SDS011;27636;52.610;13.244;2023-02-21T01:06:22;14.52;;;4.65;;
41943;SDS011;27636;52.610;13.244;2023-02-21T01:11:45;12.65;;;4.78;;
41943;SDS011;27636;52.610;13.244;2023-02-21T01:17:07;11.90;;;4.82;;
41943;SDS011;27636;52.610;13.244;2023-02-21T01:22:30;19.08;;;5.63;;
41943;SDS011;27636;52.610;13.244;2023-02-21T01:27:52;18.83;;;5.63;;
41943;SDS011;27636;52.610;13.244;2023-02-21T01:33:15;13.60;;;5.75;;
41943;SDS011;27636;52.610;13.244;2023-02-21T01:38:38;19.05;;;5.88;;
41943;SDS011;27636;52.610;13.244;2023-02-21T01:44:01;17.25;;;6.10;;
41943;SDS011;27636;52.610;13.244;2023-02-21T01:54:50;19.20;;;5.85;;
41943;SDS011;27636;52.610;13.244;2023-02-21T02:00:14;27.63;;;7.57;;
41943;SDS011;27636;52.610;13.244;2023-02-21T02:05:37;17.15;;;6.65;;
41943;SDS011;27636;52.610;13.244;2023-02-21T02:11:03;20.83;;;6.57;;
41943;SDS011;27636;52.610;13.244;2023-02-21T02:16:37;21.33;;;6.47;;
41943;SDS011;27636;52.610;13.244;2023-02-21T02:27:45;16.55;;;5.78;;
41943;SDS011;27636;52.610;13.244;2023-02-21T02:33:02;16.75;;;7.13;;
41943;SDS011;27636;52.610;13.244;2023-02-21T02:38:26;21.30;;;6.28;;
41943;SDS011;27636;52.610;13.244;2023-02-21T02:43:38;24.05;;;8.20;;
41943;SDS011;27636;52.610;13.244;2023-02-21T02:48:47;18.30;;;6.43;;
41943;SDS011;27636;52.610;13.244;2023-02-21T02:53:58;16.77;;;5.97;;
41943;SDS011;27636;52.610;13.244;2023-02-21T02:59:04;15.50;;;6.35;;
41943;SDS011;27636;52.610;13.244;2023-02-21T03:04:18;21.25;;;7.25;;
41943;SDS011;27636;52.610;13.244;2023-02-21T03:09:37;17.90;;;5.72;;
41943;SDS011;27636;52.610;13.244;2023-02-21T03:14:50;24.65;;;6.97;;
41943;SDS011;27636;52.610;13.244;2023-02-21T03:20:00;17.77;;;6.18;;
41943;SDS011;27636;52.610;13.244;2023-02-21T03:25:08;19.27;;;6.13;;
41943;SDS011;27636;52.610;13.244;2023-02-21T03:30:14;22.35;;;6.50;;
41943;SDS011;27636;52.610;13.244;2023-02-21T03:35:18;20.45;;;7.50;;
41943;SDS011;27636;52.610;13.244;2023-02-21T03:40:25;18.63;;;6.03;;
41943;SDS011;27636;52.610;13.244;2023-02-21T03:45:32;17.88;;;6.80;;
41943;SDS011;27636;52.610;13.244;2023-02-21T03:50:45;18.55;;;6.15;;
41943;SDS011;27636;52.610;13.244;2023-02-21T03:55:52;16.08;;;5.85;;
41943;SDS011;27636;52.610;13.244;2023-02-21T04:01:03;17.77;;;6.38;;
41943;SDS011;27636;52.610;13.244;2023-02-21T04:06:08;20.40;;;6.50;;
41943;SDS011;27636;52.610;13.244;2023-02-21T04:11:13;19.52;;;6.00;;
41943;SDS011;27636;52.610;13.244;2023-02-21T04:16:19;17.27;;;6.25;;
41943;SDS011;27636;52.610;13.244;2023-02-21T04:21:24;16.70;;;6.45;;
41943;SDS011;27636;52.610;13.244;2023-02-21T04:26:31;18.48;;;6.05;;
41943;SDS011;27636;52.610;13.244;2023-02-21T04:31:38;21.85;;;6.85;;
41943;SDS011;27636;52.610;13.244;2023-02-21T04:36:47;18.52;;;5.68;;
41943;SDS011;27636;52.610;13.244;2023-02-21T04:41:52;19.30;;;5.97;;
41943;SDS011;27636;52.610;13.244;2023-02-21T04:46:56;15.35;;;5.65;;
41943;SDS011;27636;52.610;13.244;2023-02-21T04:51:59;13.88;;;5.13;;
41943;SDS011;27636;52.610;13.244;2023-02-21T04:57:04;14.32;;;5.40;;
41943;SDS011;27636;52.610;13.244;2023-02-21T05:02:07;19.37;;;5.53;;
41943;SDS011;27636;52.610;13.244;2023-02-21T05:07:11;15.70;;;5.93;;
41943;SDS011;27636;52.610;13.244;2023-02-21T05:12:16;15.15;;;5.30;;
41943;SDS011;27636;52.610;13.244;2023-02-21T05:17:19;16.05;;;6.50;;
41943;SDS011;27636;52.610;13.244;2023-02-21T05:22:23;16.63;;;5.70;;
41943;SDS011;27636;52.610;13.244;2023-02-21T05:27:27;15.18;;;6.22;;
41943;SDS011;27636;52.610;13.244;2023-02-21T05:32:31;18.50;;;6.05;;
41943;SDS011;27636;52.610;13.244;2023-02-21T05:37:34;15.43;;;5.55;;
41943;SDS011;27636;52.610;13.244;2023-02-21T05:42:39;19.73;;;6.90;;
41943;SDS011;27636;52.610;13.244;2023-02-21T05:47:44;17.83;;;6.03;;
41943;SDS011;27636;52.610;13.244;2023-02-21T05:52:48;13.20;;;4.68;;
41943;SDS011;27636;52.610;13.244;2023-02-21T05:57:52;11.18;;;3.88;;
41943;SDS011;27636;52.610;13.244;2023-02-21T06:02:57;16.52;;;4.47;;
41943;SDS011;27636;52.610;13.244;2023-02-21T06:08:00;13.20;;;4.82;;
41943;SDS011;27636;52.610;13.244;2023-02-21T06:13:05;13.63;;;4.35;;
41943;SDS011;27636;52.610;13.244;2023-02-21T06:18:08;16.35;;;4.90;;
41943;SDS011;27636;52.610;13.244;2023-02-21T06:23:13;14.65;;;4.95;;
41943;SDS011;27636;52.610;13.244;2023-02-21T06:28:18;16.58;;;4.82;;
41943;SDS011;27636;52.610;13.244;2023-02-21T06:33:22;11.70;;;3.90;;
41943;SDS011;27636;52.610;13.244;2023-02-21T06:38:25;12.77;;;3.70;;
41943;SDS011;27636;52.610;13.244;2023-02-21T06:43:30;11.90;;;3.97;;
41943;SDS011;27636;52.610;13.244;2023-02-21T06:48:33;19.60;;;3.77;;
41943;SDS011;27636;52.610;13.244;2023-02-21T06:53:36;12.38;;;3.42;;
41943;SDS011;27636;52.610;13.244;2023-02-21T06:58:41;11.85;;;3.20;;
41943;SDS011;27636;52.610;13.244;2023-02-21T07:03:44;10.40;;;3.30;;
41943;SDS011;27636;52.610;13.244;2023-02-21T07:08:50;9.10;;;3.05;;
41943;SDS011;27636;52.610;13.244;2023-02-21T07:14:01;7.82;;;3.20;;
41943;SDS011;27636;52.610;13.244;2023-02-21T07:19:07;9.82;;;3.45;;
41943;SDS011;27636;52.610;13.244;2023-02-21T07:24:12;15.10;;;3.13;;
41943;SDS011;27636;52.610;13.244;2023-02-21T07:29:17;9.20;;;2.87;;
41943;SDS011;27636;52.610;13.244;2023-02-21T07:34:21;6.75;;;2.25;;
41943;SDS011;27636;52.610;13.244;2023-02-21T07:39:28;7.55;;;3.28;;
41943;SDS011;27636;52.610;13.244;2023-02-21T07:44:33;7.90;;;2.70;;
41943;SDS011;27636;52.610;13.244;2023-02-21T07:54:41;9.77;;;2.65;;
41943;SDS011;27636;52.610;13.244;2023-02-21T07:59:47;8.10;;;2.50;;
41943;SDS011;27636;52.610;13.244;2023-02-21T08:04:52;8.85;;;2.35;;
41943;SDS011;27636;52.610;13.244;2023-02-21T08:09:56;6.75;;;2.20;;
41943;SDS011;27636;52.610;13.244;2023-02-21T08:15:07;6.32;;;2.30;;
41943;SDS011;27636;52.610;13.244;2023-02-21T08:20:16;4.33;;;1.63;;
41943;SDS011;27636;52.610;13.244;2023-02-21T08:25:21;3.90;;;1.70;;
41943;SDS011;27636;52.610;13.244;2023-02-21T08:30:30;6.47;;;1.50;;
41943;SDS011;27636;52.610;13.244;2023-02-21T08:35:35;7.50;;;2.75;;
41943;SDS011;27636;52.610;13.244;2023-02-21T08:40:40;4.70;;;1.63;;
41943;SDS011;27636;52.610;13.244;2023-02-21T08:45:45;4.90;;;1.33;;
41943;SDS011;27636;52.610;13.244;2023-02-21T08:50:50;4.43;;;1.20;;
41943;SDS011;27636;52.610;13.244;2023-02-21T08:55:55;3.70;;;1.17;;
41943;SDS011;27636;52.610;13.244;2023-02-21T09:01:04;5.13;;;1.15;;
41943;SDS011;27636;52.610;13.244;2023-02-21T09:06:10;3.25;;;0.95;;
41943;SDS011;27636;52.610;13.244;2023-02-21T09:11:14;10.43;;;1.17;;
41943;SDS011;27636;52.610;13.244;2023-02-21T09:16:20;5.03;;;1.00;;
41943;SDS011;27636;52.610;13.244;2023-02-21T09:21:27;6.30;;;0.95;;
41943;SDS011;27636;52.610;13.244;2023-02-21T09:26:31;10.55;;;1.33;;
41943;SDS011;27636;52.610;13.244;2023-02-21T09:31:37;7.35;;;1.30;;
41943;SDS011;27636;52.610;13.244;2023-02-21T09:36:41;7.55;;;1.13;;
41943;SDS011;27636;52.610;13.244;2023-02-21T09:41:45;10.93;;;1.10;;
41943;SDS011;27636;52.610;13.244;2023-02-21T09:46:52;8.48;;;1.40;;
41943;SDS011;27636;52.610;13.244;2023-02-21T09:51:59;9.00;;;1.73;;
41943;SDS011;27636;52.610;13.244;2023-02-21T09:57:09;10.32;;;1.80;;
41943;SDS011;27636;52.610;13.244;2023-02-21T10:02:23;8.75;;;1.23;;
41943;SDS011;27636;52.610;13.244;2023-02-21T10:07:39;7.82;;;1.20;;
41943;SDS011;27636;52.610;13.244;2023-02-21T10:12:51;5.05;;;1.73;;
41943;SDS011;27636;52.610;13.244;2023-02-21T10:18:01;5.75;;;1.58;;
41943;SDS011;27636;52.610;13.244;2023-02-21T10:23:13;8.07;;;1.20;;
41943;SDS011;27636;52.610;13.244;2023-02-21T10:28:21;23.10;;;2.25;;
41943;SDS011;27636;52.610;13.244;2023-02-21T10:33:27;9.68;;;1.27;;
41943;SDS011;27636;52.610;13.244;2023-02-21T10:38:45;9.63;;;2.88;;
41943;SDS011;27636;52.610;13.244;2023-02-21T10:43:57;10.20;;;1.67;;
41943;SDS011;27636;52.610;13.244;2023-02-21T10:49:16;9.55;;;1.17;;
41943;SDS011;27636;52.610;13.244;2023-02-21T10:54:25;8.98;;;0.98;;
41943;SDS011;27636;52.610;13.244;2023-02-21T10:59:30;4.72;;;0.82;;
41943;SDS011;27636;52.610;13.244;2023-02-21T11:04:38;5.93;;;1.25;;
41943;SDS011;27636;52.610;13.244;2023-02-21T11:09:43;9.10;;;1.80;;
41943;SDS011;27636;52.610;13.244;2023-02-21T11:15:09;9.57;;;1.52;;
41943;SDS011;27636;52.610;13.244;2023-02-21T11:20:21;9.02;;;1.33;;
41943;SDS011;27636;52.610;13.244;2023-02-21T11:25:26;9.65;;;1.55;;
41943;SDS011;27636;52.610;13.244;2023-02-21T11:30:33;10.98;;;1.30;;
41943;SDS011;27636;52.610;13.244;2023-02-21T11:35:43;9.30;;;1.40;;
41943;SDS011;27636;52.610;13.244;2023-02-21T11:40:50;8.45;;;1.45;;
41943;SDS011;27636;52.610;13.244;2023-02-21T11:45:56;10.37;;;1.30;;
41943;SDS011;27636;52.610;13.244;2023-02-21T11:51:28;3.67;;;1.40;;
41943;SDS011;27636;52.610;13.244;2023-02-21T11:56:38;9.65;;;1.55;;
41943;SDS011;27636;52.610;13.244;2023-02-21T12:01:54;8.25;;;1.60;;
41943;SDS011;27636;52.610;13.244;2023-02-21T12:07:14;14.23;;;2.58;;
41943;SDS011;27636;52.610;13.244;2023-02-21T12:12:27;16.80;;;2.05;;
41943;SDS011;27636;52.610;13.244;2023-02-21T12:23:25;8.48;;;1.85;;
41943;SDS011;27636;52.610;13.244;2023-02-21T12:28:43;9.43;;;1.25;;
41943;SDS011;27636;52.610;13.244;2023-02-21T12:34:00;11.75;;;2.10;;
41943;SDS011;27636;52.610;13.244;2023-02-21T12:39:22;13.57;;;2.63;;
41943;SDS011;27636;52.610;13.244;2023-02-21T12:44:38;4.18;;;1.13;;
41943;SDS011;27636;52.610;13.244;2023-02-21T12:49:52;12.10;;;2.00;;
41943;SDS011;27636;52.610;13.244;2023-02-21T12:55:04;11.45;;;1.73;;
41943;SDS011;27636;52.610;13.244;2023-02-21T13:00:16;7.03;;;1.67;;
41943;SDS011;27636;52.610;13.244;2023-02-21T13:05:27;7.35;;;1.42;;
41943;SDS011;27636;52.610;13.244;2023-02-21T13:10:42;15.55;;;2.17;;
41943;SDS011;27636;52.610;13.244;2023-02-21T13:15:53;13.13;;;1.65;;
41943;SDS011;27636;52.610;13.244;2023-02-21T13:21:06;13.80;;;1.80;;
41943;SDS011;27636;52.610;13.244;2023-02-21T13:26:23;13.13;;;1.85;;
41943;SDS011;27636;52.610;13.244;2023-02-21T13:31:49;11.82;;;1.67;;
41943;SDS011;27636;52.610;13.244;2023-02-21T13:37:03;8.38;;;1.40;;
41943;SDS011;27636;52.610;13.244;2023-02-21T13:42:14;12.07;;;2.08;;
41943;SDS011;27636;52.610;13.244;2023-02-21T13:47:21;11.38;;;2.03;;
41943;SDS011;27636;52.610;13.244;2023-02-21T14:03:39;10.40;;;1.57;;
41943;SDS011;27636;52.610;13.244;2023-02-21T14:08:43;10.18;;;1.90;;
41943;SDS011;27636;52.610;13.244;2023-02-21T14:13:53;13.25;;;1.58;;
41943;SDS011;27636;52.610;13.244;2023-02-21T14:18:59;9.48;;;1.33;;
41943;SDS011;27636;52.610;13.244;2023-02-21T14:24:14;6.43;;;1.90;;
41943;SDS011;27636;52.610;13.244;2023-02-21T14:29:31;15.23;;;1.67;;
41943;SDS011;27636;52.610;13.244;2023-02-21T14:34:41;8.00;;;1.55;;
41943;SDS011;27636;52.610;13.244;2023-02-21T14:39:58;4.55;;;1.05;;
41943;SDS011;27636;52.610;13.244;2023-02-21T14:45:18;7.38;;;1.52;;
41943;SDS011;27636;52.610;13.244;2023-02-21T14:50:42;18.27;;;2.13;;
41943;SDS011;27636;52.610;13.244;2023-02-21T14:56:05;15.25;;;2.60;;
41943;SDS011;27636;52.610;13.244;2023-02-21T15:01:43;12.80;;;1.48;;
41943;SDS011;27636;52.610;13.244;2023-02-21T15:06:58;6.63;;;1.67;;
41943;SDS011;27636;52.610;13.244;2023-02-21T15:12:13;4.78;;;1.17;;
41943;SDS011;27636;52.610;13.244;2023-02-21T15:17:21;9.23;;;2.20;;
41943;SDS011;27636;52.610;13.244;2023-02-21T15:22:27;13.15;;;1.95;;
41943;SDS011;27636;52.610;13.244;2023-02-21T15:27:31;12.20;;;1.52;;
41943;SDS011;27636;52.610;13.244;2023-02-21T15:32:36;6.45;;;1.67;;
41943;SDS011;27636;52.610;13.244;2023-02-21T15:42:45;18.30;;;1.83;;
41943;SDS011;27636;52.610;13.244;2023-02-21T16:00:29;14.30;;;2.23;;
41943;SDS011;27636;52.610;13.244;2023-02-21T16:05:36;8.07;;;1.98;;
41943;SDS011;27636;52.610;13.244;2023-02-21T16:10:41;19.48;;;2.17;;
41943;SDS011;27636;52.610;13.244;2023-02-21T16:15:45;20.10;;;2.25;;
41943;SDS011;27636;52.610;13.244;2023-02-21T16:20:57;10.45;;;1.98;;
41943;SDS011;27636;52.610;13.244;2023-02-21T16:31:31;7.60;;;2.25;;
41943;SDS011;27636;52.610;13.244;2023-02-21T16:36:36;18.08;;;2.50;;
41943;SDS011;27636;52.610;13.244;2023-02-21T16:41:43;12.40;;;1.92;;
41943;SDS011;27636;52.610;13.244;2023-02-21T16:46:48;10.13;;;1.95;;
41943;SDS011;27636;52.610;13.244;2023-02-21T16:51:53;10.27;;;1.63;;
41943;SDS011;27636;52.610;13.244;2023-02-21T16:56:57;8.50;;;1.80;;
41943;SDS011;27636;52.610;13.244;2023-02-21T17:02:02;10.90;;;3.03;;
41943;SDS011;27636;52.610;13.244;2023-02-21T17:07:08;6.68;;;2.35;;
41943;SDS011;27636;52.610;13.244;2023-02-21T17:12:16;11.02;;;2.42;;
41943;SDS011;27636;52.610;13.244;2023-02-21T17:17:21;11.15;;;2.20;;
41943;SDS011;27636;52.610;13.244;2023-02-21T17:22:25;18.13;;;2.17;;
41943;SDS011;27636;52.610;13.244;2023-02-21T17:27:29;8.65;;;1.75;;
41943;SDS011;27636;52.610;13.244;2023-02-21T17:32:34;10.98;;;2.05;;
41943;SDS011;27636;52.610;13.244;2023-02-21T17:37:38;19.27;;;3.25;;
41943;SDS011;27636;52.610;13.244;2023-02-21T17:42:41;12.50;;;2.67;;
41943;SDS011;27636;52.610;13.244;2023-02-21T17:47:47;10.45;;;3.28;;
41943;SDS011;27636;52.610;13.244;2023-02-21T17:52:52;14.57;;;3.00;;
41943;SDS011;27636;52.610;13.244;2023-02-21T17:57:56;16.90;;;4.82;;
41943;SDS011;27636;52.610;13.244;2023-02-21T18:03:02;10.57;;;2.88;;
41943;SDS011;27636;52.610;13.244;2023-02-21T18:08:08;12.88;;;3.50;;
41943;SDS011;27636;52.610;13.244;2023-02-21T18:13:13;10.60;;;3.05;;
41943;SDS011;27636;52.610;13.244;2023-02-21T18:18:23;5.40;;;2.15;;
41943;SDS011;27636;52.610;13.244;2023-02-21T18:23:27;12.07;;;3.47;;
41943;SDS011;27636;52.610;13.244;2023-02-21T18:28:31;8.43;;;4.38;;
41943;SDS011;27636;52.610;13.244;2023-02-21T18:33:37;20.83;;;5.25;;
41943;SDS011;27636;52.610;13.244;2023-02-21T18:38:41;15.50;;;6.43;;
41943;SDS011;27636;52.610;13.244;2023-02-21T18:43:45;19.70;;;8.15;;
41943;SDS011;27636;52.610;13.244;2023-02-21T18:48:50;14.80;;;6.57;;
41943;SDS011;27636;52.610;13.244;2023-02-21T18:53:54;15.60;;;7.53;;
41943;SDS011;27636;52.610;13.244;2023-02-21T18:58:58;20.48;;;7.40;;
41943;SDS011;27636;52.610;13.244;2023-02-21T19:04:04;17.03;;;6.17;;
41943;SDS011;27636;52.610;13.244;2023-02-21T19:14:12;13.00;;;4.95;;
41943;SDS011;27636;52.610;13.244;2023-02-21T19:19:17;13.77;;;6.40;;
41943;SDS011;27636;52.610;13.244;2023-02-21T19:24:20;21.05;;;6.53;;
41943;SDS011;27636;52.610;13.244;2023-02-21T19:29:24;23.65;;;7.40;;
41943;SDS011;27636;52.610;13.244;2023-02-21T19:34:29;19.85;;;7.93;;
41943;SDS011;27636;52.610;13.244;2023-02-21T19:39:32;22.73;;;8.23;;
41943;SDS011;27636;52.610;13.244;2023-02-21T19:44:38;26.33;;;7.95;;
41943;SDS011;27636;52.610;13.244;2023-02-21T19:49:44;26.97;;;8.27;;
41943;SDS011;27636;52.610;13.244;2023-02-21T19:54:49;28.55;;;8.73;;
41943;SDS011;27636;52.610;13.244;2023-02-21T19:59:53;26.85;;;10.90;;
41943;SDS011;27636;52.610;13.244;2023-02-21T20:04:58;29.10;;;8.95;;
41943;SDS011;27636;52.610;13.244;2023-02-21T20:10:02;27.90;;;8.65;;
41943;SDS011;27636;52.610;13.244;2023-02-21T20:15:07;22.05;;;8.02;;
41943;SDS011;27636;52.610;13.244;2023-02-21T20:20:15;20.23;;;7.72;;
41943;SDS011;27636;52.610;13.244;2023-02-21T20:25:19;22.08;;;7.38;;
41943;SDS011;27636;52.610;13.244;2023-02-21T20:30:23;19.98;;;7.60;;
41943;SDS011;27636;52.610;13.244;2023-02-21T20:35:29;21.10;;;6.93;;
41943;SDS011;27636;52.610;13.244;2023-02-21T20:40:34;20.50;;;7.28;;
41943;SDS011;27636;52.610;13.244;2023-02-21T20:45:38;16.13;;;5.35;;
41943;SDS011;27636;52.610;13.244;2023-02-21T20:50:44;14.50;;;6.17;;
41943;SDS011;27636;52.610;13.244;2023-02-21T21:00:52;14.20;;;5.63;;
41943;SDS011;27636;52.610;13.244;2023-02-21T21:05:57;15.98;;;5.40;;
41943;SDS011;27636;52.610;13.244;2023-02-21T21:11:00;17.00;;;5.70;;
41943;SDS011;27636;52.610;13.244;2023-02-21T21:16:05;16.52;;;5.85;;
41943;SDS011;27636;52.610;13.244;2023-02-21T21:21:13;13.27;;;5.13;;
41943;SDS011;27636;52.610;13.244;2023-02-21T21:26:17;16.48;;;5.28;;
41943;SDS011;27636;52.610;13.244;2023-02-21T21:31:21;15.45;;;5.07;;
41943;SDS011;27636;52.610;13.244;2023-02-21T21:36:27;20.87;;;4.63;;
41943;SDS011;27636;52.610;13.244;2023-02-21T21:41:30;13.13;;;4.20;;
41943;SDS011;27636;52.610;13.244;2023-02-21T21:46:36;20.23;;;4.45;;
41943;SDS011;27636;52.610;13.244;2023-02-21T21:51:43;13.98;;;4.22;;
41943;SDS011;27636;52.610;13.244;2023-02-21T21:56:47;16.58;;;4.43;;
41943;SDS011;27636;52.610;13.244;2023-02-21T22:01:51;14.32;;;4.78;;
41943;SDS011;27636;52.610;13.244;2023-02-21T22:06:58;20.83;;;4.28;;
41943;SDS011;27636;52.610;13.244;2023-02-21T22:12:03;11.25;;;4.30;;
41943;SDS011;27636;52.610;13.244;2023-02-21T22:17:08;11.32;;;5.38;;
41943;SDS011;27636;52.610;13.244;2023-02-21T22:22:15;11.23;;;4.30;;
41943;SDS011;27636;52.610;13.244;2023-02-21T22:27:19;13.55;;;3.75;;
41943;SDS011;27636;52.610;13.244;2023-02-21T22:32:23;11.27;;;3.83;;
41943;SDS011;27636;52.610;13.244;2023-02-21T22:37:28;10.32;;;3.40;;
41943;SDS011;27636;52.610;13.244;2023-02-21T22:42:32;9.63;;;4.15;;
41943;SDS011;27636;52.610;13.244;2023-02-21T22:47:36;18.85;;;5.28;;
41943;SDS011;27636;52.610;13.244;2023-02-21T22:52:42;14.25;;;4.20;;
41943;SDS011;27636;52.610;13.244;2023-02-21T22:57:46;14.00;;;4.53;;
41943;SDS011;27636;52.610;13.244;2023-02-21T23:02:49;13.32;;;4.90;;
41943;SDS011;27636;52.610;13.244;2023-02-21T23:07:55;8.67;;;3.27;;
41943;SDS011;27636;52.610;13.244;2023-02-21T23:13:00;18.05;;;4.57;;
41943;SDS011;27636;52.610;13.244;2023-02-21T23:23:12;17.73;;;4.35;;
41943;SDS011;27636;52.610;13.244;2023-02-21T23:28:18;14.32;;;4.47;;
41943;SDS011;27636;52.610;13.244;2023-02-21T23:33:24;16.67;;;4.00;;
41943;SDS011;27636;52.610;13.244;2023-02-21T23:38:30;17.25;;;4.53;;
41943;SDS011;27636;52.610;13.244;2023-02-21T23:43:42;17.38;;;4.38;;
41943;SDS011;27636;52.610;13.244;2023-02-21T23:48:49;17.10;;;5.00;;
41943;SDS011;27636;52.610;13.244;2023-02-21T23:53:58;13.68;;;3.78;;
41943;SDS011;27636;52.610;13.244;2023-02-21T23:59:03;19.15;;;3.85;;
